sensor_id;sensor_type;location;lat;lon;timestamp;pressure;altitude;pressure_sealevel;temperature;humidity
17607;BME280;69222;52.242;20.980;2023-07-31T00:00:54;99694.31;;;19.88;63.94
17607;BME280;69222;52.242;20.980;2023-07-31T00:03:22;99687.41;;;19.87;64.10
17607;BME280;69222;52.242;20.980;2023-07-31T00:05:52;99696.19;;;19.86;63.88
17607;BME280;69222;52.242;20.980;2023-07-31T00:08:20;99686.66;;;19.85;63.91
17607;BME280;69222;52.242;20.980;2023-07-31T00:10:51;99689.28;;;19.85;63.96
17607;BME280;69222;52.242;20.980;2023-07-31T00:13:19;99695.66;;;19.79;64.07
17607;BME280;69222;52.242;20.980;2023-07-31T00:15:47;99697.69;;;19.74;64.26
17607;BME280;69222;52.242;20.980;2023-07-31T00:18:15;99698.03;;;19.68;64.28
17607;BME280;69222;52.242;20.980;2023-07-31T00:20:43;99693.19;;;19.60;64.68
17607;BME280;69222;52.242;20.980;2023-07-31T00:23:12;99692.56;;;19.55;64.88
17607;BME280;69222;52.242;20.980;2023-07-31T00:25:41;99700.59;;;19.52;65.11
17607;BME280;69222;52.242;20.980;2023-07-31T00:28:10;99692.75;;;19.52;65.28
17607;BME280;69222;52.242;20.980;2023-07-31T00:30:38;99695.44;;;19.50;65.22
17607;BME280;69222;52.242;20.980;2023-07-31T00:33:06;99697.47;;;19.45;65.56
17607;BME280;69222;52.242;20.980;2023-07-31T00:35:34;99695.03;;;19.42;65.83
17607;BME280;69222;52.242;20.980;2023-07-31T00:38:02;99689.94;;;19.39;65.85
17607;BME280;69222;52.242;20.980;2023-07-31T00:40:34;99688.34;;;19.37;65.79
17607;BME280;69222;52.242;20.980;2023-07-31T00:43:02;99691.03;;;19.35;66.20
17607;BME280;69222;52.242;20.980;2023-07-31T00:45:31;99683.31;;;19.34;66.19
17607;BME280;69222;52.242;20.980;2023-07-31T00:48:00;99685.81;;;19.35;66.31
17607;BME280;69222;52.242;20.980;2023-07-31T00:50:29;99683.22;;;19.35;66.28
17607;BME280;69222;52.242;20.980;2023-07-31T00:52:58;99670.16;;;19.35;66.12
17607;BME280;69222;52.242;20.980;2023-07-31T00:55:26;99679.75;;;19.35;66.46
17607;BME280;69222;52.242;20.980;2023-07-31T00:57:56;99684.31;;;19.31;66.46
17607;BME280;69222;52.242;20.980;2023-07-31T01:00:24;99674.69;;;19.31;66.43
17607;BME280;69222;52.242;20.980;2023-07-31T01:02:52;99678.06;;;19.34;66.67
17607;BME280;69222;52.242;20.980;2023-07-31T01:05:25;99679.66;;;19.36;66.57
17607;BME280;69222;52.242;20.980;2023-07-31T01:08:04;99688.34;;;19.37;66.27
17607;BME280;69222;52.242;20.980;2023-07-31T01:10:40;99689.38;;;19.34;66.33
17607;BME280;69222;52.242;20.980;2023-07-31T01:13:12;99692.03;;;19.33;66.53
17607;BME280;69222;52.242;20.980;2023-07-31T01:15:40;99693.22;;;19.27;66.68
17607;BME280;69222;52.242;20.980;2023-07-31T01:18:08;99692.53;;;19.23;66.83
17607;BME280;69222;52.242;20.980;2023-07-31T01:20:37;99692.53;;;19.23;67.09
17607;BME280;69222;52.242;20.980;2023-07-31T01:31:53;99693.63;;;19.19;67.31
17607;BME280;69222;52.242;20.980;2023-07-31T01:34:24;99685.81;;;19.19;67.42
17607;BME280;69222;52.242;20.980;2023-07-31T01:36:53;99695.47;;;19.17;67.18
17607;BME280;69222;52.242;20.980;2023-07-31T01:39:21;99699.94;;;19.15;67.50
17607;BME280;69222;52.242;20.980;2023-07-31T01:41:49;99694.03;;;19.12;67.77
17607;BME280;69222;52.242;20.980;2023-07-31T01:44:17;99701.94;;;19.10;67.82
17607;BME280;69222;52.242;20.980;2023-07-31T01:46:45;99700.50;;;19.04;67.96
17607;BME280;69222;52.242;20.980;2023-07-31T01:49:14;99695.84;;;18.94;68.42
17607;BME280;69222;52.242;20.980;2023-07-31T01:51:42;99695.16;;;18.90;68.66
17607;BME280;69222;52.242;20.980;2023-07-31T01:54:11;99696.00;;;18.91;68.61
17607;BME280;69222;52.242;20.980;2023-07-31T01:56:39;99693.53;;;18.88;68.90
17607;BME280;69222;52.242;20.980;2023-07-31T01:59:07;99698.41;;;18.78;69.11
17607;BME280;69222;52.242;20.980;2023-07-31T02:01:35;99707.38;;;18.72;69.50
17607;BME280;69222;52.242;20.980;2023-07-31T02:04:03;99705.72;;;18.70;69.41
17607;BME280;69222;52.242;20.980;2023-07-31T02:06:33;99706.09;;;18.62;69.60
17607;BME280;69222;52.242;20.980;2023-07-31T02:09:01;99696.00;;;18.56;69.97
17607;BME280;69222;52.242;20.980;2023-07-31T02:11:29;99703.41;;;18.46;70.25
17607;BME280;69222;52.242;20.980;2023-07-31T02:13:57;99700.13;;;18.43;70.35
17607;BME280;69222;52.242;20.980;2023-07-31T02:16:25;99705.34;;;18.43;70.88
17607;BME280;69222;52.242;20.980;2023-07-31T02:18:53;99710.56;;;18.43;70.81
17607;BME280;69222;52.242;20.980;2023-07-31T02:21:21;99712.56;;;18.38;70.97
17607;BME280;69222;52.242;20.980;2023-07-31T02:23:50;99718.75;;;18.35;71.07
17607;BME280;69222;52.242;20.980;2023-07-31T02:26:18;99718.91;;;18.32;71.44
17607;BME280;69222;52.242;20.980;2023-07-31T02:28:46;99721.41;;;18.33;71.40
17607;BME280;69222;52.242;20.980;2023-07-31T02:31:14;99715.38;;;18.33;71.37
17607;BME280;69222;52.242;20.980;2023-07-31T02:33:42;99718.91;;;18.32;71.64
17607;BME280;69222;52.242;20.980;2023-07-31T02:36:10;99727.88;;;18.26;71.74
17607;BME280;69222;52.242;20.980;2023-07-31T02:38:38;99728.88;;;18.24;72.06
17607;BME280;69222;52.242;20.980;2023-07-31T02:41:07;99736.56;;;18.27;71.87
17607;BME280;69222;52.242;20.980;2023-07-31T02:43:35;99738.31;;;18.26;71.88
17607;BME280;69222;52.242;20.980;2023-07-31T02:46:03;99743.69;;;18.23;72.36
17607;BME280;69222;52.242;20.980;2023-07-31T02:48:32;99731.34;;;18.27;72.10
17607;BME280;69222;52.242;20.980;2023-07-31T02:51:00;99731.25;;;18.28;72.21
17607;BME280;69222;52.242;20.980;2023-07-31T02:53:28;99725.03;;;18.31;71.93
17607;BME280;69222;52.242;20.980;2023-07-31T02:55:56;99718.81;;;18.33;71.85
17607;BME280;69222;52.242;20.980;2023-07-31T02:58:25;99718.75;;;18.35;71.62
17607;BME280;69222;52.242;20.980;2023-07-31T03:00:53;99728.25;;;18.36;71.32
17607;BME280;69222;52.242;20.980;2023-07-31T03:03:21;99731.72;;;18.37;71.48
17607;BME280;69222;52.242;20.980;2023-07-31T03:05:49;99725.50;;;18.39;71.26
17607;BME280;69222;52.242;20.980;2023-07-31T03:08:17;99724.44;;;18.43;71.11
17607;BME280;69222;52.242;20.980;2023-07-31T03:10:45;99720.00;;;18.45;70.83
17607;BME280;69222;52.242;20.980;2023-07-31T03:13:13;99719.00;;;18.48;70.63
17607;BME280;69222;52.242;20.980;2023-07-31T03:15:43;99722.38;;;18.50;70.40
17607;BME280;69222;52.242;20.980;2023-07-31T03:18:13;99725.75;;;18.52;70.57
17607;BME280;69222;52.242;20.980;2023-07-31T03:20:44;99726.53;;;18.54;70.58
17607;BME280;69222;52.242;20.980;2023-07-31T03:23:11;99727.31;;;18.56;70.13
17607;BME280;69222;52.242;20.980;2023-07-31T03:25:55;99728.16;;;18.56;70.01
17607;BME280;69222;52.242;20.980;2023-07-31T03:28:23;99723.91;;;18.54;70.03
17607;BME280;69222;52.242;20.980;2023-07-31T03:30:53;99732.66;;;18.53;70.07
17607;BME280;69222;52.242;20.980;2023-07-31T03:33:21;99730.81;;;18.55;70.09
17607;BME280;69222;52.242;20.980;2023-07-31T03:35:49;99732.34;;;18.59;69.70
17607;BME280;69222;52.242;20.980;2023-07-31T03:38:17;99747.72;;;18.65;69.85
17607;BME280;69222;52.242;20.980;2023-07-31T03:40:45;99745.69;;;18.70;69.06
17607;BME280;69222;52.242;20.980;2023-07-31T03:43:15;99741.22;;;18.74;69.39
17607;BME280;69222;52.242;20.980;2023-07-31T03:45:43;99741.16;;;18.75;69.24
17607;BME280;69222;52.242;20.980;2023-07-31T03:48:14;99747.34;;;18.73;69.26
17607;BME280;69222;52.242;20.980;2023-07-31T03:50:42;99748.28;;;18.72;69.39
17607;BME280;69222;52.242;20.980;2023-07-31T03:53:10;99750.91;;;18.72;69.20
17607;BME280;69222;52.242;20.980;2023-07-31T03:55:38;99757.88;;;18.71;69.13
17607;BME280;69222;52.242;20.980;2023-07-31T03:58:06;99762.28;;;18.69;69.59
17607;BME280;69222;52.242;20.980;2023-07-31T04:00:34;99755.44;;;18.67;69.17
17607;BME280;69222;52.242;20.980;2023-07-31T04:03:02;99770.28;;;18.66;69.42
17607;BME280;69222;52.242;20.980;2023-07-31T04:05:32;99769.44;;;18.66;69.62
17607;BME280;69222;52.242;20.980;2023-07-31T04:08:01;99772.13;;;18.64;69.35
17607;BME280;69222;52.242;20.980;2023-07-31T04:10:29;99773.19;;;18.60;69.47
17607;BME280;69222;52.242;20.980;2023-07-31T04:12:59;99773.94;;;18.62;69.58
17607;BME280;69222;52.242;20.980;2023-07-31T04:15:28;99774.78;;;18.63;69.51
17607;BME280;69222;52.242;20.980;2023-07-31T04:17:55;99773.81;;;18.65;69.52
17607;BME280;69222;52.242;20.980;2023-07-31T04:20:23;99773.94;;;18.62;69.68
17607;BME280;69222;52.242;20.980;2023-07-31T04:22:53;99775.88;;;18.58;69.45
17607;BME280;69222;52.242;20.980;2023-07-31T04:25:21;99785.56;;;18.56;69.71
17607;BME280;69222;52.242;20.980;2023-07-31T04:27:49;99782.09;;;18.56;69.93
17607;BME280;69222;52.242;20.980;2023-07-31T04:30:17;99781.41;;;18.52;69.63
17607;BME280;69222;52.242;20.980;2023-07-31T04:32:45;99790.91;;;18.53;69.68
17607;BME280;69222;52.242;20.980;2023-07-31T04:35:13;99784.84;;;18.53;69.94
17607;BME280;69222;52.242;20.980;2023-07-31T04:37:41;99795.16;;;18.56;69.50
17607;BME280;69222;52.242;20.980;2023-07-31T04:40:11;99794.97;;;18.59;69.13
17607;BME280;69222;52.242;20.980;2023-07-31T04:42:39;99795.84;;;18.59;69.27
17607;BME280;69222;52.242;20.980;2023-07-31T04:45:09;99794.81;;;18.62;69.09
17607;BME280;69222;52.242;20.980;2023-07-31T04:47:37;99791.47;;;18.60;69.06
17607;BME280;69222;52.242;20.980;2023-07-31T04:50:06;99792.38;;;18.59;69.22
17607;BME280;69222;52.242;20.980;2023-07-31T04:52:34;99790.53;;;18.61;69.17
17607;BME280;69222;52.242;20.980;2023-07-31T04:55:02;99793.75;;;18.66;68.93
17607;BME280;69222;52.242;20.980;2023-07-31T04:57:31;99797.22;;;18.67;68.96
17607;BME280;69222;52.242;20.980;2023-07-31T04:59:59;99791.31;;;18.63;68.75
17607;BME280;69222;52.242;20.980;2023-07-31T05:02:27;99786.84;;;18.65;69.08
17607;BME280;69222;52.242;20.980;2023-07-31T05:04:55;99789.31;;;18.68;68.59
17607;BME280;69222;52.242;20.980;2023-07-31T05:07:24;99793.41;;;18.74;68.72
17607;BME280;69222;52.242;20.980;2023-07-31T05:09:52;99795.03;;;18.76;68.62
17607;BME280;69222;52.242;20.980;2023-07-31T05:12:25;99800.19;;;18.78;68.48
17607;BME280;69222;52.242;20.980;2023-07-31T05:14:54;99797.59;;;18.78;68.41
17607;BME280;69222;52.242;20.980;2023-07-31T05:17:22;99804.53;;;18.77;68.35
17607;BME280;69222;52.242;20.980;2023-07-31T05:19:51;99804.53;;;18.77;68.30
17607;BME280;69222;52.242;20.980;2023-07-31T05:22:19;99802.72;;;18.79;68.08
17607;BME280;69222;52.242;20.980;2023-07-31T05:24:47;99807.78;;;18.82;68.01
17607;BME280;69222;52.242;20.980;2023-07-31T05:27:15;99805.09;;;18.84;67.68
17607;BME280;69222;52.242;20.980;2023-07-31T05:29:45;99809.34;;;18.87;67.98
17607;BME280;69222;52.242;20.980;2023-07-31T05:32:14;99802.25;;;18.89;67.71
17607;BME280;69222;52.242;20.980;2023-07-31T05:34:42;99815.94;;;18.94;67.91
17607;BME280;69222;52.242;20.980;2023-07-31T05:37:10;99813.00;;;18.82;67.91
17607;BME280;69222;52.242;20.980;2023-07-31T05:39:38;99821.78;;;18.81;68.14
17607;BME280;69222;52.242;20.980;2023-07-31T05:42:06;99823.31;;;18.86;67.85
17607;BME280;69222;52.242;20.980;2023-07-31T05:44:34;99823.13;;;18.89;67.82
17607;BME280;69222;52.242;20.980;2023-07-31T05:47:03;99824.84;;;18.90;67.80
17607;BME280;69222;52.242;20.980;2023-07-31T05:49:32;99822.16;;;18.91;68.17
17607;BME280;69222;52.242;20.980;2023-07-31T05:52:00;99819.63;;;18.90;67.67
17607;BME280;69222;52.242;20.980;2023-07-31T05:54:28;99818.84;;;18.88;67.76
17607;BME280;69222;52.242;20.980;2023-07-31T05:56:56;99829.06;;;18.92;67.80
17607;BME280;69222;52.242;20.980;2023-07-31T05:59:24;99836.03;;;18.92;67.47
17607;BME280;69222;52.242;20.980;2023-07-31T06:01:52;99837.22;;;18.86;67.89
17607;BME280;69222;52.242;20.980;2023-07-31T06:04:20;99842.34;;;18.88;68.03
17607;BME280;69222;52.242;20.980;2023-07-31T06:06:52;99839.59;;;18.91;67.64
17607;BME280;69222;52.242;20.980;2023-07-31T06:09:20;99845.59;;;18.93;67.08
17607;BME280;69222;52.242;20.980;2023-07-31T06:11:49;99840.56;;;18.88;67.10
17607;BME280;69222;52.242;20.980;2023-07-31T06:14:18;99851.72;;;18.92;66.90
17607;BME280;69222;52.242;20.980;2023-07-31T06:16:45;99848.81;;;18.98;66.82
17607;BME280;69222;52.242;20.980;2023-07-31T06:19:13;99848.72;;;18.99;66.45
17607;BME280;69222;52.242;20.980;2023-07-31T06:21:41;99853.88;;;19.01;65.93
17607;BME280;69222;52.242;20.980;2023-07-31T06:24:11;99851.41;;;18.98;66.40
17607;BME280;69222;52.242;20.980;2023-07-31T06:26:39;99856.72;;;18.96;67.17
17607;BME280;69222;52.242;20.980;2023-07-31T06:29:08;99861.94;;;18.96;67.48
17607;BME280;69222;52.242;20.980;2023-07-31T06:31:37;99854.31;;;18.92;67.67
17607;BME280;69222;52.242;20.980;2023-07-31T06:34:05;99849.34;;;18.87;67.86
17607;BME280;69222;52.242;20.980;2023-07-31T06:36:33;99845.19;;;18.83;68.19
17607;BME280;69222;52.242;20.980;2023-07-31T06:39:01;99849.72;;;18.79;68.48
17607;BME280;69222;52.242;20.980;2023-07-31T06:41:31;99852.88;;;18.67;68.97
17607;BME280;69222;52.242;20.980;2023-07-31T06:43:59;99857.47;;;18.62;69.79
17607;BME280;69222;52.242;20.980;2023-07-31T06:46:27;99860.06;;;18.62;69.77
17607;BME280;69222;52.242;20.980;2023-07-31T06:48:55;99856.06;;;18.55;69.63
17607;BME280;69222;52.242;20.980;2023-07-31T06:51:23;99854.59;;;18.49;70.22
17607;BME280;69222;52.242;20.980;2023-07-31T06:53:51;99863.00;;;18.56;70.16
17607;BME280;69222;52.242;20.980;2023-07-31T06:56:20;99865.38;;;18.61;70.10
17607;BME280;69222;52.242;20.980;2023-07-31T06:58:49;99861.94;;;18.60;69.64
17607;BME280;69222;52.242;20.980;2023-07-31T07:01:18;99862.69;;;18.62;69.97
17607;BME280;69222;52.242;20.980;2023-07-31T07:03:46;99863.31;;;18.67;69.44
17607;BME280;69222;52.242;20.980;2023-07-31T07:06:13;99865.06;;;18.67;69.40
17607;BME280;69222;52.242;20.980;2023-07-31T07:08:42;99854.81;;;18.64;69.39
17607;BME280;69222;52.242;20.980;2023-07-31T07:11:10;99854.31;;;18.74;69.26
17607;BME280;69222;52.242;20.980;2023-07-31T07:13:38;99866.00;;;19.02;69.08
17607;BME280;69222;52.242;20.980;2023-07-31T07:16:08;99860.78;;;19.54;66.90
17607;BME280;69222;52.242;20.980;2023-07-31T07:18:37;99856.63;;;20.16;64.75
17607;BME280;69222;52.242;20.980;2023-07-31T07:21:24;99859.34;;;20.46;62.52
17607;BME280;69222;52.242;20.980;2023-07-31T07:23:52;99858.59;;;20.76;62.10
17607;BME280;69222;52.242;20.980;2023-07-31T07:26:20;99859.88;;;21.15;59.66
17607;BME280;69222;52.242;20.980;2023-07-31T07:28:47;99859.06;;;21.73;59.38
17607;BME280;69222;52.242;20.980;2023-07-31T07:31:17;99850.88;;;22.89;57.35
17607;BME280;69222;52.242;20.980;2023-07-31T07:34:10;99840.38;;;24.29;49.94
17607;BME280;69222;52.242;20.980;2023-07-31T07:36:39;99837.25;;;25.20;48.05
17607;BME280;69222;52.242;20.980;2023-07-31T07:39:09;99837.94;;;26.14;46.07
17607;BME280;69222;52.242;20.980;2023-07-31T07:41:37;99835.63;;;26.32;45.51
17607;BME280;69222;52.242;20.980;2023-07-31T07:44:08;99834.09;;;26.18;45.72
17607;BME280;69222;52.242;20.980;2023-07-31T07:46:37;99839.13;;;26.10;44.19
17607;BME280;69222;52.242;20.980;2023-07-31T07:49:05;99834.81;;;25.75;45.44
17607;BME280;69222;52.242;20.980;2023-07-31T07:51:34;99842.38;;;25.57;45.75
17607;BME280;69222;52.242;20.980;2023-07-31T07:54:01;99843.19;;;25.46;45.69
17607;BME280;69222;52.242;20.980;2023-07-31T07:56:30;99843.38;;;25.21;45.92
17607;BME280;69222;52.242;20.980;2023-07-31T07:58:58;99854.13;;;24.82;46.41
17607;BME280;69222;52.242;20.980;2023-07-31T08:01:25;99849.56;;;25.09;47.04
17607;BME280;69222;52.242;20.980;2023-07-31T08:03:55;99847.47;;;25.36;45.56
17607;BME280;69222;52.242;20.980;2023-07-31T08:06:23;99842.16;;;25.14;45.50
17607;BME280;69222;52.242;20.980;2023-07-31T08:08:51;99850.84;;;25.03;45.43
17607;BME280;69222;52.242;20.980;2023-07-31T08:11:19;99843.94;;;25.60;44.74
17607;BME280;69222;52.242;20.980;2023-07-31T08:13:48;99829.13;;;27.11;42.61
17607;BME280;69222;52.242;20.980;2023-07-31T08:16:16;99826.84;;;28.20;39.46
17607;BME280;69222;52.242;20.980;2023-07-31T08:18:44;99826.84;;;28.99;38.48
17607;BME280;69222;52.242;20.980;2023-07-31T08:21:14;99831.53;;;29.81;36.75
17607;BME280;69222;52.242;20.980;2023-07-31T08:23:42;99827.63;;;30.13;34.89
17607;BME280;69222;52.242;20.980;2023-07-31T08:26:14;99828.53;;;29.66;35.18
17607;BME280;69222;52.242;20.980;2023-07-31T08:28:42;99825.72;;;29.11;36.10
17607;BME280;69222;52.242;20.980;2023-07-31T08:31:10;99829.34;;;28.11;37.15
17607;BME280;69222;52.242;20.980;2023-07-31T08:33:39;99835.97;;;27.35;38.57
17607;BME280;69222;52.242;20.980;2023-07-31T08:36:07;99840.72;;;26.67;40.18
17607;BME280;69222;52.242;20.980;2023-07-31T08:38:37;99839.66;;;25.92;41.75
17607;BME280;69222;52.242;20.980;2023-07-31T08:41:08;99837.91;;;25.46;43.12
17607;BME280;69222;52.242;20.980;2023-07-31T08:43:36;99828.88;;;25.15;42.87
17607;BME280;69222;52.242;20.980;2023-07-31T08:46:06;99836.47;;;25.07;43.59
17607;BME280;69222;52.242;20.980;2023-07-31T08:48:35;99840.50;;;24.65;43.96
17607;BME280;69222;52.242;20.980;2023-07-31T08:51:06;99836.78;;;24.43;44.30
17607;BME280;69222;52.242;20.980;2023-07-31T08:53:34;99835.34;;;24.39;44.92
17607;BME280;69222;52.242;20.980;2023-07-31T08:56:08;99839.09;;;24.48;45.48
17607;BME280;69222;52.242;20.980;2023-07-31T08:58:37;99833.72;;;24.49;44.87
17607;BME280;69222;52.242;20.980;2023-07-31T09:01:07;99835.59;;;24.60;45.23
17607;BME280;69222;52.242;20.980;2023-07-31T09:03:38;99830.41;;;24.82;44.24
17607;BME280;69222;52.242;20.980;2023-07-31T09:06:07;99834.28;;;24.90;43.63
17607;BME280;69222;52.242;20.980;2023-07-31T09:08:39;99828.84;;;24.80;42.44
17607;BME280;69222;52.242;20.980;2023-07-31T09:11:11;99836.06;;;24.89;43.07
17607;BME280;69222;52.242;20.980;2023-07-31T09:13:40;99838.94;;;24.86;43.13
17607;BME280;69222;52.242;20.980;2023-07-31T09:16:08;99837.00;;;24.88;43.25
17607;BME280;69222;52.242;20.980;2023-07-31T09:18:53;99839.91;;;24.96;43.15
17607;BME280;69222;52.242;20.980;2023-07-31T09:21:21;99842.53;;;24.96;42.62
17607;BME280;69222;52.242;20.980;2023-07-31T09:23:49;99841.47;;;24.64;42.61
17607;BME280;69222;52.242;20.980;2023-07-31T09:26:31;99841.44;;;24.40;44.35
17607;BME280;69222;52.242;20.980;2023-07-31T09:29:01;99833.81;;;24.48;43.55
17607;BME280;69222;52.242;20.980;2023-07-31T09:31:32;99836.38;;;24.49;42.79
17607;BME280;69222;52.242;20.980;2023-07-31T09:34:01;99842.47;;;24.37;43.48
17607;BME280;69222;52.242;20.980;2023-07-31T09:36:29;99837.97;;;24.26;43.85
17607;BME280;69222;52.242;20.980;2023-07-31T09:39:02;99838.78;;;24.52;43.21
17607;BME280;69222;52.242;20.980;2023-07-31T09:41:36;99838.34;;;24.94;42.93
17607;BME280;69222;52.242;20.980;2023-07-31T09:44:04;99828.47;;;25.77;41.03
17607;BME280;69222;52.242;20.980;2023-07-31T09:46:35;99835.94;;;26.93;38.74
17607;BME280;69222;52.242;20.980;2023-07-31T09:49:06;99825.25;;;27.36;37.26
17607;BME280;69222;52.242;20.980;2023-07-31T09:51:34;99830.16;;;26.67;37.79
17607;BME280;69222;52.242;20.980;2023-07-31T09:54:11;99836.19;;;26.90;37.53
17607;BME280;69222;52.242;20.980;2023-07-31T09:56:44;99833.31;;;28.36;35.79
17607;BME280;69222;52.242;20.980;2023-07-31T09:59:14;99828.59;;;28.50;34.34
17607;BME280;69222;52.242;20.980;2023-07-31T10:01:43;99818.63;;;29.02;33.93
17607;BME280;69222;52.242;20.980;2023-07-31T10:04:13;99824.84;;;30.04;32.08
17607;BME280;69222;52.242;20.980;2023-07-31T10:06:43;99819.66;;;30.94;30.09
17607;BME280;69222;52.242;20.980;2023-07-31T10:09:15;99811.41;;;31.05;29.22
17607;BME280;69222;52.242;20.980;2023-07-31T10:11:52;99824.13;;;29.84;30.22
17607;BME280;69222;52.242;20.980;2023-07-31T10:14:23;99812.03;;;29.63;30.49
17607;BME280;69222;52.242;20.980;2023-07-31T10:17:02;99823.03;;;29.77;30.42
17607;BME280;69222;52.242;20.980;2023-07-31T10:19:32;99821.38;;;29.10;30.91
17607;BME280;69222;52.242;20.980;2023-07-31T10:22:08;99819.84;;;29.17;31.75
17607;BME280;69222;52.242;20.980;2023-07-31T10:24:39;99813.28;;;29.68;30.03
17607;BME280;69222;52.242;20.980;2023-07-31T10:27:12;99802.25;;;29.63;30.48
17607;BME280;69222;52.242;20.980;2023-07-31T10:29:41;99817.63;;;29.69;29.60
17607;BME280;69222;52.242;20.980;2023-07-31T10:32:12;99819.72;;;28.70;30.56
17607;BME280;69222;52.242;20.980;2023-07-31T10:34:41;99814.94;;;27.94;31.77
17607;BME280;69222;52.242;20.980;2023-07-31T10:37:23;99823.91;;;27.21;32.70
17607;BME280;69222;52.242;20.980;2023-07-31T10:39:56;99811.28;;;27.86;32.19
17607;BME280;69222;52.242;20.980;2023-07-31T10:42:30;99816.34;;;28.68;30.75
17607;BME280;69222;52.242;20.980;2023-07-31T10:44:59;99814.91;;;29.32;29.53
17607;BME280;69222;52.242;20.980;2023-07-31T10:47:27;99814.94;;;29.22;29.43
17607;BME280;69222;52.242;20.980;2023-07-31T10:50:12;99816.38;;;28.58;29.24
17607;BME280;69222;52.242;20.980;2023-07-31T10:52:44;99823.31;;;28.50;29.70
17607;BME280;69222;52.242;20.980;2023-07-31T10:55:23;99813.56;;;28.60;29.75
17607;BME280;69222;52.242;20.980;2023-07-31T10:57:53;99816.47;;;28.96;28.59
17607;BME280;69222;52.242;20.980;2023-07-31T11:00:23;99819.94;;;29.35;28.08
17607;BME280;69222;52.242;20.980;2023-07-31T11:02:59;99803.31;;;29.23;28.34
17607;BME280;69222;52.242;20.980;2023-07-31T11:05:47;99815.22;;;28.90;28.60
17607;BME280;69222;52.242;20.980;2023-07-31T11:08:17;99820.31;;;28.14;29.36
17607;BME280;69222;52.242;20.980;2023-07-31T11:10:47;99807.72;;;27.97;30.44
17607;BME280;69222;52.242;20.980;2023-07-31T11:13:16;99815.66;;;28.56;30.13
17607;BME280;69222;52.242;20.980;2023-07-31T11:15:45;99806.56;;;28.98;29.19
17607;BME280;69222;52.242;20.980;2023-07-31T11:18:12;99809.94;;;29.09;28.04
17607;BME280;69222;52.242;20.980;2023-07-31T11:20:42;99804.63;;;28.61;29.09
17607;BME280;69222;52.242;20.980;2023-07-31T11:23:10;99810.47;;;28.45;29.91
17607;BME280;69222;52.242;20.980;2023-07-31T11:25:39;99809.09;;;28.51;29.46
17607;BME280;69222;52.242;20.980;2023-07-31T11:28:10;99813.22;;;28.34;29.77
17607;BME280;69222;52.242;20.980;2023-07-31T11:30:40;99812.75;;;28.00;30.13
17607;BME280;69222;52.242;20.980;2023-07-31T11:33:10;99806.19;;;27.42;30.33
17607;BME280;69222;52.242;20.980;2023-07-31T11:35:42;99804.66;;;26.98;31.04
17607;BME280;69222;52.242;20.980;2023-07-31T11:38:12;99804.56;;;26.13;33.88
17607;BME280;69222;52.242;20.980;2023-07-31T11:40:44;99810.34;;;25.62;34.43
17607;BME280;69222;52.242;20.980;2023-07-31T11:43:12;99815.00;;;25.47;34.81
17607;BME280;69222;52.242;20.980;2023-07-31T11:45:47;99815.59;;;25.39;34.47
17607;BME280;69222;52.242;20.980;2023-07-31T11:48:19;99811.38;;;25.37;34.79
17607;BME280;69222;52.242;20.980;2023-07-31T11:50:49;99811.72;;;25.21;34.38
17607;BME280;69222;52.242;20.980;2023-07-31T11:53:21;99807.59;;;25.05;34.21
17607;BME280;69222;52.242;20.980;2023-07-31T11:55:50;99804.97;;;25.05;34.39
17607;BME280;69222;52.242;20.980;2023-07-31T11:58:20;99794.69;;;25.14;34.61
17607;BME280;69222;52.242;20.980;2023-07-31T12:00:50;99801.03;;;25.11;34.82
17607;BME280;69222;52.242;20.980;2023-07-31T12:03:19;99804.97;;;25.05;35.47
17607;BME280;69222;52.242;20.980;2023-07-31T12:05:48;99803.16;;;25.06;36.17
17607;BME280;69222;52.242;20.980;2023-07-31T12:08:16;99803.56;;;25.13;36.14
17607;BME280;69222;52.242;20.980;2023-07-31T12:10:44;99804.22;;;25.03;35.34
17607;BME280;69222;52.242;20.980;2023-07-31T12:13:20;99797.41;;;25.01;35.50
17607;BME280;69222;52.242;20.980;2023-07-31T12:15:54;99796.44;;;25.02;35.83
17607;BME280;69222;52.242;20.980;2023-07-31T12:18:25;99797.63;;;24.98;36.18
17607;BME280;69222;52.242;20.980;2023-07-31T12:20:55;99793.53;;;24.94;36.87
17607;BME280;69222;52.242;20.980;2023-07-31T12:23:25;99795.09;;;24.96;36.46
17607;BME280;69222;52.242;20.980;2023-07-31T12:26:01;99785.50;;;24.95;37.49
17607;BME280;69222;52.242;20.980;2023-07-31T12:28:30;99783.34;;;24.89;37.83
17607;BME280;69222;52.242;20.980;2023-07-31T12:31:00;99792.63;;;24.71;37.70
17607;BME280;69222;52.242;20.980;2023-07-31T12:33:31;99785.66;;;24.70;38.11
17607;BME280;69222;52.242;20.980;2023-07-31T12:36:02;99776.31;;;24.66;37.16
17607;BME280;69222;52.242;20.980;2023-07-31T12:38:30;99779.25;;;24.50;38.51
17607;BME280;69222;52.242;20.980;2023-07-31T12:40:58;99777.22;;;24.53;38.23
17607;BME280;69222;52.242;20.980;2023-07-31T12:43:26;99765.25;;;24.49;38.71
17607;BME280;69222;52.242;20.980;2023-07-31T12:45:55;99770.88;;;24.32;37.96
17607;BME280;69222;52.242;20.980;2023-07-31T12:48:25;99769.34;;;24.17;38.27
17607;BME280;69222;52.242;20.980;2023-07-31T12:50:53;99761.06;;;24.10;38.60
17607;BME280;69222;52.242;20.980;2023-07-31T12:53:21;99759.88;;;24.14;38.76
17607;BME280;69222;52.242;20.980;2023-07-31T12:55:49;99759.44;;;24.20;38.62
17607;BME280;69222;52.242;20.980;2023-07-31T12:58:17;99759.50;;;24.31;37.94
17607;BME280;69222;52.242;20.980;2023-07-31T13:00:45;99754.94;;;24.33;37.88
17607;BME280;69222;52.242;20.980;2023-07-31T13:03:13;99750.19;;;24.39;37.15
17607;BME280;69222;52.242;20.980;2023-07-31T13:05:42;99745.16;;;24.59;37.49
17607;BME280;69222;52.242;20.980;2023-07-31T13:08:10;99750.00;;;24.77;37.08
17607;BME280;69222;52.242;20.980;2023-07-31T13:10:38;99738.25;;;24.81;35.19